createdAt,value
2023-03-29T00:00:51.426Z,5.40
2023-03-29T00:03:03.192Z,3.00
2023-03-29T00:05:15.207Z,7.80
2023-03-29T00:07:26.611Z,6.40
2023-03-29T00:09:36.992Z,8.10
2023-03-29T00:11:46.900Z,6.30
2023-03-29T00:13:56.972Z,18.30
2023-03-29T00:16:07.772Z,10.90
2023-03-29T00:18:18.512Z,7.60
2023-03-29T00:20:31.090Z,4.20
2023-03-29T00:22:43.751Z,6.60
2023-03-29T00:24:54.673Z,21.70
2023-03-29T00:27:04.690Z,5.30
2023-03-29T00:29:14.729Z,3.90
2023-03-29T00:31:24.454Z,4.70
2023-03-29T00:33:34.758Z,6.40
2023-03-29T00:35:44.976Z,8.40
2023-03-29T00:37:54.908Z,5.20
2023-03-29T00:40:18.840Z,7.30
2023-03-29T00:42:31.982Z,10.00
2023-03-29T00:45:21.191Z,36.30
2023-03-29T00:47:34.822Z,4.40
2023-03-29T00:49:45.449Z,4.10
2023-03-29T00:51:55.662Z,2.60
2023-03-29T00:54:07.060Z,5.90
2023-03-29T00:56:20.951Z,7.80
2023-03-29T00:58:37.512Z,5.60
2023-03-29T01:00:54.643Z,3.60
2023-03-29T01:03:14.103Z,6.40
2023-03-29T01:05:30.073Z,6.40
2023-03-29T01:07:48.562Z,1.90
2023-03-29T01:10:01.989Z,2.80
2023-03-29T01:12:19.148Z,2.50
2023-03-29T01:14:36.285Z,4.50
2023-03-29T01:16:47.353Z,4.10
2023-03-29T01:18:58.737Z,6.30
2023-03-29T01:21:29.794Z,2.40
2023-03-29T01:23:58.719Z,1.20
2023-03-29T01:26:16.953Z,1.10
2023-03-29T01:28:32.029Z,18.00
2023-03-29T01:30:48.802Z,7.30
2023-03-29T01:33:02.272Z,3.90
2023-03-29T01:35:17.966Z,6.50
2023-03-29T01:37:32.824Z,2.30
2023-03-29T01:39:42.765Z,0.60
2023-03-29T01:42:05.313Z,4.70
2023-03-29T01:44:20.798Z,3.80
2023-03-29T01:46:36.556Z,6.00
2023-03-29T01:48:52.893Z,5.50
2023-03-29T01:51:09.630Z,8.50
2023-03-29T01:53:25.164Z,11.30
2023-03-29T01:55:38.820Z,4.50
2023-03-29T01:57:51.092Z,7.40
2023-03-29T02:00:07.814Z,3.50
2023-03-29T02:02:22.838Z,6.20
2023-03-29T02:04:38.523Z,4.40
2023-03-29T02:06:50.993Z,1.20
2023-03-29T02:09:01.020Z,1.60
2023-03-29T02:11:11.151Z,0.80
2023-03-29T02:13:21.583Z,1.00
2023-03-29T02:15:32.359Z,0.90
2023-03-29T02:17:42.907Z,0.90
2023-03-29T02:19:56.423Z,1.30
2023-03-29T02:22:11.860Z,1.90
2023-03-29T02:24:26.663Z,2.20
2023-03-29T02:26:37.177Z,1.90
2023-03-29T02:28:47.165Z,2.50
2023-03-29T02:31:01.970Z,7.90
2023-03-29T02:33:17.416Z,1.30
2023-03-29T02:35:35.368Z,5.90
2023-03-29T02:37:49.952Z,0.90
2023-03-29T02:40:01.479Z,6.30
2023-03-29T02:42:12.603Z,2.80
2023-03-29T02:44:26.693Z,2.30
2023-03-29T02:46:38.494Z,3.30
2023-03-29T02:48:51.904Z,2.60
2023-03-29T02:51:07.486Z,3.40
2023-03-29T02:53:21.515Z,2.40
2023-03-29T02:55:36.166Z,1.60
2023-03-29T02:57:46.688Z,1.10
2023-03-29T02:59:57.906Z,2.60
2023-03-29T03:02:07.945Z,0.50
2023-03-29T03:04:21.556Z,0.40
2023-03-29T03:06:33.805Z,0.70
2023-03-29T03:08:46.751Z,0.70
2023-03-29T03:10:57.363Z,0.50
2023-03-29T03:13:07.755Z,0.70
2023-03-29T03:15:18.384Z,0.60
2023-03-29T03:17:28.789Z,1.00
2023-03-29T03:19:39.324Z,2.50
2023-03-29T03:21:50.052Z,0.60
2023-03-29T03:24:00.359Z,0.60
2023-03-29T03:26:11.462Z,0.80
2023-03-29T03:28:24.635Z,0.60
2023-03-29T03:30:35.279Z,0.40
2023-03-29T03:33:03.465Z,0.50
2023-03-29T03:35:32.261Z,0.80
2023-03-29T03:37:43.441Z,0.40
2023-03-29T03:39:54.464Z,0.40
2023-03-29T03:42:07.889Z,0.50
2023-03-29T03:44:22.824Z,0.80
2023-03-29T03:46:48.970Z,1.50
2023-03-29T03:48:59.910Z,2.00
2023-03-29T03:51:16.798Z,1.90
2023-03-29T03:53:28.332Z,0.50
2023-03-29T03:55:58.637Z,0.90
2023-03-29T03:58:14.509Z,0.80
2023-03-29T04:00:25.006Z,1.00
2023-03-29T04:02:44.737Z,0.60
2023-03-29T04:04:55.529Z,0.80
2023-03-29T04:07:13.894Z,0.80
2023-03-29T04:09:42.950Z,1.30
2023-03-29T04:12:10.091Z,0.60
2023-03-29T04:14:21.162Z,1.20
2023-03-29T04:16:31.991Z,0.60
2023-03-29T04:18:50.748Z,1.20
2023-03-29T04:21:01.650Z,2.40
2023-03-29T04:23:14.124Z,6.10
2023-03-29T04:28:01.157Z,3.10
2023-03-29T04:30:34.621Z,3.70
2023-03-29T04:33:13.505Z,1.30
2023-03-29T04:35:24.925Z,1.60
2023-03-29T04:37:35.110Z,1.50
2023-03-29T04:39:45.855Z,1.40
2023-03-29T04:41:56.097Z,0.90
2023-03-29T04:44:10.308Z,1.10
2023-03-29T04:46:20.614Z,0.80
2023-03-29T04:48:54.417Z,0.50
2023-03-29T04:51:13.316Z,1.10
2023-03-29T04:53:24.724Z,1.10
2023-03-29T04:55:34.487Z,1.30
2023-03-29T04:57:46.187Z,0.60
2023-03-29T05:00:01.970Z,0.50
2023-03-29T05:02:38.225Z,0.50
2023-03-29T05:04:48.388Z,0.80
2023-03-29T05:06:59.845Z,1.30
2023-03-29T05:09:11.165Z,14.40
2023-03-29T05:11:28.962Z,17.20
2023-03-29T05:13:40.493Z,13.30
2023-03-29T05:15:50.475Z,24.80
2023-03-29T05:18:01.203Z,32.90
2023-03-29T05:20:13.752Z,24.30
2023-03-29T05:22:26.311Z,42.90
2023-03-29T05:24:39.158Z,19.00
2023-03-29T05:26:57.028Z,20.40
2023-03-29T05:29:09.712Z,8.80
2023-03-29T05:31:20.605Z,15.10
2023-03-29T05:33:36.941Z,9.10
2023-03-29T05:35:47.979Z,3.50
2023-03-29T05:37:58.793Z,4.10
2023-03-29T05:40:10.792Z,2.60
2023-03-29T05:42:47.159Z,2.10
2023-03-29T05:44:59.469Z,1.40
2023-03-29T05:47:09.460Z,2.00
2023-03-29T05:49:19.318Z,1.30
2023-03-29T05:53:49.711Z,1.30
2023-03-29T05:55:59.714Z,1.10
2023-03-29T05:58:10.783Z,2.00
2023-03-29T06:00:26.111Z,1.70
2023-03-29T06:02:42.814Z,1.70
2023-03-29T06:04:54.378Z,1.00
2023-03-29T06:07:07.524Z,3.10
2023-03-29T06:09:20.965Z,2.70
2023-03-29T06:11:42.214Z,1.90
2023-03-29T06:14:05.295Z,2.20
2023-03-29T06:16:16.020Z,1.90
2023-03-29T06:18:26.073Z,1.50
2023-03-29T06:20:35.992Z,1.30
2023-03-29T06:22:50.502Z,1.30
2023-03-29T06:25:00.301Z,1.00
2023-03-29T06:27:12.435Z,1.10
2023-03-29T06:29:26.324Z,1.20
2023-03-29T06:31:37.762Z,2.70
2023-03-29T06:33:48.534Z,1.80
2023-03-29T06:36:17.138Z,1.00
2023-03-29T06:38:28.795Z,2.20
2023-03-29T06:41:04.691Z,0.50
2023-03-29T06:43:30.215Z,0.60
2023-03-29T06:45:50.974Z,0.70
2023-03-29T06:48:17.098Z,0.60
2023-03-29T06:50:28.343Z,0.70
2023-03-29T06:53:04.828Z,0.60
2023-03-29T06:55:16.462Z,1.10
2023-03-29T06:57:26.804Z,1.40
2023-03-29T06:59:37.193Z,2.10
2023-03-29T07:02:09.236Z,1.60
2023-03-29T07:04:32.867Z,0.70
2023-03-29T07:07:02.918Z,1.40
2023-03-29T07:09:18.280Z,0.60
2023-03-29T07:11:55.214Z,0.60
2023-03-29T07:14:06.553Z,1.00
2023-03-29T07:16:16.978Z,0.60
2023-03-29T07:18:37.000Z,0.90
2023-03-29T07:20:48.044Z,1.90
2023-03-29T07:22:58.452Z,3.40
2023-03-29T07:25:10.037Z,0.60
2023-03-29T07:27:21.258Z,0.80
2023-03-29T07:29:31.872Z,0.60
2023-03-29T07:31:42.552Z,1.50
2023-03-29T07:34:33.162Z,0.90
2023-03-29T07:36:44.287Z,3.70
2023-03-29T07:38:56.309Z,2.00
2023-03-29T07:41:08.506Z,0.70
2023-03-29T07:43:33.000Z,22.40
2023-03-29T07:45:45.143Z,1.30
2023-03-29T07:47:59.048Z,21.10
2023-03-29T07:50:15.398Z,7.70
2023-03-29T07:52:26.030Z,21.00
2023-03-29T07:54:36.139Z,9.30
2023-03-29T07:57:09.457Z,30.20
2023-03-29T07:59:25.290Z,35.00
2023-03-29T08:01:43.539Z,4.10
2023-03-29T08:04:12.823Z,5.10
2023-03-29T08:06:41.328Z,3.70
2023-03-29T08:08:51.270Z,4.90
2023-03-29T08:11:01.257Z,2.30
2023-03-29T08:13:40.671Z,0.70
2023-03-29T08:16:12.388Z,2.50
2023-03-29T08:18:32.847Z,73.90
2023-03-29T08:20:45.343Z,9.50
2023-03-29T08:22:56.392Z,3.20
2023-03-29T08:25:39.335Z,5.00
2023-03-29T08:27:51.266Z,3.20
2023-03-29T08:30:13.469Z,3.50
2023-03-29T08:32:24.052Z,10.40
2023-03-29T08:34:36.336Z,5.10
2023-03-29T08:37:04.159Z,1.10
2023-03-29T08:39:27.534Z,4.30
2023-03-29T08:42:10.003Z,1.70
2023-03-29T08:44:29.533Z,4.30
2023-03-29T08:46:52.499Z,1.90
2023-03-29T08:49:12.720Z,6.80
2023-03-29T08:51:27.981Z,3.90
2023-03-29T08:53:43.264Z,6.20
2023-03-29T08:56:20.352Z,12.40
2023-03-29T08:58:50.134Z,7.00
2023-03-29T09:01:02.971Z,8.10
2023-03-29T09:03:24.302Z,7.10
2023-03-29T09:05:41.074Z,8.60
2023-03-29T09:08:07.773Z,3.10
2023-03-29T09:10:19.875Z,4.10
2023-03-29T09:12:43.628Z,5.80
2023-03-29T09:15:07.359Z,3.30
2023-03-29T09:17:37.896Z,1.60
2023-03-29T09:19:57.143Z,2.40
2023-03-29T09:22:17.621Z,4.20
2023-03-29T09:25:02.757Z,1.80
2023-03-29T09:27:18.884Z,1.10
2023-03-29T09:29:51.892Z,1.00
2023-03-29T09:32:13.144Z,0.90
2023-03-29T09:34:30.787Z,1.00
2023-03-29T09:36:52.802Z,2.30
2023-03-29T09:39:05.421Z,1.10
2023-03-29T09:41:25.372Z,2.00
2023-03-29T09:43:40.441Z,2.60
2023-03-29T09:45:59.678Z,1.60
2023-03-29T09:48:15.357Z,4.20
2023-03-29T09:50:33.328Z,2.70
2023-03-29T09:52:44.989Z,1.60
2023-03-29T09:55:02.095Z,1.20
2023-03-29T09:57:35.663Z,1.90
2023-03-29T09:59:46.589Z,1.50
2023-03-29T10:02:07.240Z,0.60
2023-03-29T10:04:22.032Z,1.90
2023-03-29T10:06:37.262Z,0.60
2023-03-29T10:08:53.934Z,1.50
2023-03-29T10:11:09.157Z,2.60
2023-03-29T10:13:24.585Z,1.10
2023-03-29T10:15:35.083Z,0.60
2023-03-29T10:17:46.606Z,1.30
2023-03-29T10:19:58.619Z,0.80
2023-03-29T10:22:17.111Z,0.90
2023-03-29T10:24:28.903Z,0.70
2023-03-29T10:26:40.543Z,1.00
2023-03-29T10:28:53.292Z,1.70
2023-03-29T10:31:06.684Z,1.80
2023-03-29T10:33:24.480Z,1.00
2023-03-29T10:35:40.782Z,0.80
2023-03-29T10:37:55.636Z,1.40
2023-03-29T10:40:06.401Z,0.70
2023-03-29T10:42:18.637Z,1.70
2023-03-29T10:44:34.966Z,0.70
2023-03-29T10:46:47.509Z,5.00
2023-03-29T10:51:09.747Z,2.80
2023-03-29T10:53:25.389Z,0.60
2023-03-29T10:55:41.553Z,1.90
2023-03-29T10:58:03.314Z,2.10
2023-03-29T11:00:20.321Z,4.40
2023-03-29T11:03:07.111Z,0.60
2023-03-29T11:05:26.401Z,1.10
2023-03-29T11:07:42.382Z,0.90
2023-03-29T11:10:01.475Z,2.70
2023-03-29T11:12:19.201Z,2.10
2023-03-29T11:14:40.932Z,0.90
2023-03-29T11:17:01.055Z,0.70
2023-03-29T11:19:22.334Z,0.60
2023-03-29T11:21:41.474Z,1.10
2023-03-29T11:23:59.125Z,0.70
2023-03-29T11:26:18.471Z,0.80
2023-03-29T11:28:39.518Z,2.70
2023-03-29T11:30:59.786Z,2.20
2023-03-29T11:33:32.442Z,0.60
2023-03-29T11:35:50.374Z,0.50
2023-03-29T11:38:07.852Z,0.60
2023-03-29T11:40:40.730Z,1.10
2023-03-29T11:42:56.066Z,0.80
2023-03-29T11:45:08.599Z,0.60
2023-03-29T11:49:35.308Z,1.10
2023-03-29T11:51:49.751Z,0.60
2023-03-29T11:54:10.080Z,0.90
2023-03-29T11:56:26.694Z,1.20
2023-03-29T11:58:42.051Z,1.50
2023-03-29T12:00:59.047Z,0.80
2023-03-29T12:03:14.952Z,0.70
2023-03-29T12:05:28.950Z,0.90
2023-03-29T12:07:44.312Z,0.50
2023-03-29T12:09:58.755Z,0.70
2023-03-29T12:12:15.842Z,1.70
2023-03-29T12:14:30.617Z,2.20
2023-03-29T12:16:46.410Z,0.70
2023-03-29T12:19:00.188Z,2.00
2023-03-29T12:21:15.075Z,0.80
2023-03-29T12:23:26.167Z,0.50
2023-03-29T12:25:47.217Z,0.90
2023-03-29T12:28:08.286Z,0.50
2023-03-29T12:30:41.440Z,0.60
2023-03-29T12:33:12.029Z,0.90
2023-03-29T12:35:39.082Z,0.70
2023-03-29T12:38:15.804Z,4.70
2023-03-29T12:40:48.399Z,2.50
2023-03-29T12:43:31.006Z,0.60
2023-03-29T12:46:12.383Z,0.60
2023-03-29T12:48:25.293Z,0.60
2023-03-29T12:50:39.916Z,1.20
2023-03-29T12:52:49.875Z,0.50
2023-03-29T12:55:01.526Z,1.60
2023-03-29T12:57:28.565Z,0.90
2023-03-29T12:59:46.877Z,0.70
2023-03-29T13:02:26.453Z,0.80
2023-03-29T13:04:51.450Z,1.70
2023-03-29T13:07:07.579Z,1.00
2023-03-29T13:09:30.034Z,0.60
2023-03-29T13:11:44.290Z,0.70
2023-03-29T13:13:55.553Z,0.60
2023-03-29T13:16:17.480Z,0.80
2023-03-29T13:18:51.445Z,0.90
2023-03-29T13:21:12.145Z,0.80
2023-03-29T13:23:42.562Z,0.90
2023-03-29T13:26:13.646Z,0.70
2023-03-29T13:28:31.766Z,0.70
2023-03-29T13:30:54.608Z,0.60
2023-03-29T13:33:21.486Z,1.10
2023-03-29T13:35:44.052Z,0.80
2023-03-29T13:38:07.176Z,0.70
2023-03-29T13:40:45.329Z,2.90
2023-03-29T13:43:02.374Z,1.30
2023-03-29T13:45:19.175Z,1.20
2023-03-29T13:47:58.254Z,0.70
2023-03-29T13:50:19.485Z,0.60
2023-03-29T13:52:32.962Z,0.60
2023-03-29T13:54:48.457Z,0.60
2023-03-29T13:57:08.191Z,0.80
2023-03-29T13:59:22.614Z,0.80
2023-03-29T14:01:40.190Z,0.70
2023-03-29T14:03:52.235Z,1.00
2023-03-29T14:06:05.377Z,0.60
2023-03-29T14:08:23.033Z,0.70
2023-03-29T14:10:38.244Z,0.70
2023-03-29T14:12:48.583Z,1.10
2023-03-29T14:15:06.239Z,1.40
2023-03-29T14:17:23.124Z,0.70
2023-03-29T14:19:37.124Z,0.70
2023-03-29T14:21:47.984Z,1.10
2023-03-29T14:24:02.814Z,0.80
2023-03-29T14:26:19.492Z,1.00
2023-03-29T14:28:31.143Z,1.10
2023-03-29T14:30:48.456Z,0.70
2023-03-29T14:32:59.065Z,2.80
2023-03-29T14:35:13.328Z,0.80
2023-03-29T14:37:30.753Z,1.80
2023-03-29T14:39:42.632Z,1.20
2023-03-29T14:41:54.902Z,0.90
2023-03-29T14:44:05.261Z,1.20
2023-03-29T14:46:17.629Z,0.80
2023-03-29T14:50:35.562Z,1.70
2023-03-29T14:52:47.575Z,1.10
2023-03-29T14:55:01.334Z,1.70
2023-03-29T14:57:15.923Z,2.70
2023-03-29T14:59:38.484Z,1.90
2023-03-29T15:01:49.514Z,2.00
2023-03-29T15:04:08.106Z,2.80
2023-03-29T15:06:18.902Z,0.80
2023-03-29T15:08:34.782Z,0.70
2023-03-29T15:10:45.155Z,0.80
2023-03-29T15:12:55.704Z,1.30
2023-03-29T15:15:08.214Z,3.10
2023-03-29T15:19:43.479Z,0.70
2023-03-29T15:21:54.729Z,1.20
2023-03-29T15:24:06.409Z,0.80
2023-03-29T15:26:23.813Z,0.70
2023-03-29T15:28:35.621Z,0.60
2023-03-29T15:31:00.790Z,1.10
2023-03-29T15:33:25.387Z,1.80
2023-03-29T15:35:35.556Z,0.80
2023-03-29T15:37:47.763Z,1.10
2023-03-29T15:39:58.099Z,1.20
2023-03-29T15:42:08.578Z,0.60
2023-03-29T15:44:19.633Z,1.60
2023-03-29T15:46:29.833Z,0.80
2023-03-29T15:48:39.813Z,0.70
2023-03-29T15:50:49.763Z,1.50
2023-03-29T15:53:14.103Z,0.70
2023-03-29T15:55:26.591Z,0.50
2023-03-29T15:57:37.457Z,1.20
2023-03-29T15:59:48.504Z,0.60
2023-03-29T16:01:58.775Z,0.60
2023-03-29T16:04:12.410Z,0.50
2023-03-29T16:06:24.349Z,3.00
2023-03-29T16:08:34.430Z,0.70
2023-03-29T16:10:45.452Z,0.70
2023-03-29T16:12:55.545Z,1.20
2023-03-29T16:15:10.904Z,1.30
2023-03-29T16:17:20.565Z,0.60
2023-03-29T16:19:31.496Z,0.70
2023-03-29T16:21:43.834Z,1.00
2023-03-29T16:23:53.779Z,1.80
2023-03-29T16:26:03.795Z,0.70
2023-03-29T16:28:17.172Z,0.60
2023-03-29T16:30:27.004Z,1.00
2023-03-29T16:32:36.872Z,0.90
2023-03-29T16:34:46.914Z,0.70
2023-03-29T16:36:57.343Z,1.20
2023-03-29T16:39:07.321Z,0.80
2023-03-29T16:41:19.480Z,0.80
2023-03-29T16:43:30.473Z,0.70
2023-03-29T16:45:40.837Z,0.90
2023-03-29T16:47:51.228Z,1.90
2023-03-29T16:50:01.647Z,1.10
2023-03-29T16:52:12.602Z,0.50
2023-03-29T16:54:22.714Z,0.90
2023-03-29T16:56:32.433Z,2.00
2023-03-29T16:58:44.629Z,0.70
2023-03-29T17:00:56.324Z,2.10
2023-03-29T17:03:06.725Z,2.10
2023-03-29T17:05:16.660Z,1.00
2023-03-29T17:07:26.811Z,1.10
2023-03-29T17:09:37.511Z,0.50
2023-03-29T17:11:47.712Z,2.50
2023-03-29T17:13:57.436Z,7.90
2023-03-29T17:16:07.812Z,9.50
2023-03-29T17:18:17.592Z,4.40
2023-03-29T17:20:27.498Z,1.70
2023-03-29T17:22:37.513Z,8.20
2023-03-29T17:24:47.237Z,5.00
2023-03-29T17:26:56.929Z,0.60
2023-03-29T17:29:07.445Z,0.80
2023-03-29T17:31:19.666Z,0.70
2023-03-29T17:33:29.692Z,0.60
2023-03-29T17:35:40.124Z,4.70
2023-03-29T17:37:49.952Z,10.30
2023-03-29T17:39:59.990Z,17.80
2023-03-29T17:42:10.508Z,14.00
2023-03-29T17:44:21.775Z,24.60
2023-03-29T17:46:31.779Z,55.80
2023-03-29T17:48:41.745Z,24.70
2023-03-29T17:50:51.623Z,31.20
2023-03-29T17:53:01.314Z,23.20
2023-03-29T17:55:14.076Z,21.90
2023-03-29T17:57:24.273Z,14.80
2023-03-29T17:59:34.422Z,11.80
2023-03-29T18:01:44.764Z,17.90
2023-03-29T18:03:55.342Z,6.80
2023-03-29T18:06:06.230Z,17.30
2023-03-29T18:08:17.490Z,15.20
2023-03-29T18:10:27.249Z,12.80
2023-03-29T18:12:37.283Z,8.80
2023-03-29T18:14:47.477Z,8.80
2023-03-29T18:16:58.234Z,16.70
2023-03-29T18:19:08.082Z,6.50
2023-03-29T18:21:18.653Z,15.10
2023-03-29T18:23:28.423Z,8.70
2023-03-29T18:25:39.339Z,11.70
2023-03-29T18:27:50.633Z,11.50
2023-03-29T18:30:00.534Z,8.50
2023-03-29T18:32:10.933Z,9.80
2023-03-29T18:34:21.414Z,7.80
2023-03-29T18:36:32.800Z,11.60
2023-03-29T18:38:44.026Z,7.00
2023-03-29T18:40:54.507Z,4.30
2023-03-29T18:43:04.685Z,7.80
2023-03-29T18:45:15.919Z,6.30
2023-03-29T18:47:26.081Z,4.40
2023-03-29T18:49:37.206Z,7.80
2023-03-29T18:51:48.018Z,3.50
2023-03-29T18:53:58.223Z,6.80
2023-03-29T18:56:08.569Z,9.70
2023-03-29T18:58:20.767Z,9.20
2023-03-29T19:00:30.705Z,8.30
2023-03-29T19:02:40.911Z,4.10
2023-03-29T19:04:51.756Z,5.80
2023-03-29T19:07:01.951Z,2.00
2023-03-29T19:09:11.648Z,6.70
2023-03-29T19:11:21.968Z,6.90
2023-03-29T19:13:31.719Z,9.40
2023-03-29T19:15:41.821Z,8.30
2023-03-29T19:17:51.932Z,5.00
2023-03-29T19:20:02.082Z,5.00
2023-03-29T19:22:12.032Z,2.40
2023-03-29T19:24:22.479Z,5.40
2023-03-29T19:26:33.815Z,6.20
2023-03-29T19:28:43.557Z,2.50
2023-03-29T19:30:53.371Z,8.80
2023-03-29T19:33:03.961Z,4.50
2023-03-29T19:35:14.549Z,8.40
2023-03-29T19:37:24.377Z,10.40
2023-03-29T19:39:34.385Z,2.80
2023-03-29T19:41:47.064Z,11.60
2023-03-29T19:43:57.342Z,12.40
2023-03-29T19:46:13.400Z,6.00
2023-03-29T19:48:24.315Z,8.50
2023-03-29T19:50:34.772Z,6.80
2023-03-29T19:52:44.605Z,5.50
2023-03-29T19:54:54.543Z,5.40
2023-03-29T19:57:05.106Z,6.50
2023-03-29T19:59:18.483Z,6.20
2023-03-29T20:01:28.574Z,7.30
2023-03-29T20:03:39.107Z,4.80
2023-03-29T20:05:50.605Z,14.00
2023-03-29T20:08:00.203Z,3.80
2023-03-29T20:10:11.569Z,8.10
2023-03-29T20:12:22.000Z,6.40
2023-03-29T20:14:32.013Z,2.50
2023-03-29T20:16:43.159Z,7.00
2023-03-29T20:18:54.491Z,7.50
2023-03-29T20:21:04.711Z,7.40
2023-03-29T20:23:16.070Z,9.20
2023-03-29T20:25:26.295Z,9.80
2023-03-29T20:27:36.150Z,9.90
2023-03-29T20:29:46.111Z,10.60
2023-03-29T20:31:55.704Z,10.80
2023-03-29T20:34:05.796Z,3.40
2023-03-29T20:36:19.169Z,4.40
2023-03-29T20:38:29.071Z,5.40
2023-03-29T20:40:39.422Z,3.30
2023-03-29T20:42:54.732Z,5.00
2023-03-29T20:45:05.369Z,3.60
2023-03-29T20:47:17.274Z,3.60
2023-03-29T20:49:27.872Z,4.60
2023-03-29T20:51:39.645Z,5.20
2023-03-29T20:53:49.754Z,3.70
2023-03-29T20:55:59.652Z,3.80
2023-03-29T20:58:10.365Z,5.10
2023-03-29T21:00:21.470Z,2.00
2023-03-29T21:02:31.165Z,7.20
2023-03-29T21:04:41.333Z,5.00
2023-03-29T21:06:51.434Z,7.50
2023-03-29T21:09:03.042Z,4.50
2023-03-29T21:11:18.742Z,3.50
2023-03-29T21:13:28.905Z,8.30
2023-03-29T21:15:39.123Z,3.60
2023-03-29T21:17:49.284Z,3.70
2023-03-29T21:19:59.572Z,4.60
2023-03-29T21:22:10.284Z,3.70
2023-03-29T21:24:21.274Z,8.50
2023-03-29T21:26:31.001Z,3.50
2023-03-29T21:28:41.663Z,6.40
2023-03-29T21:30:51.633Z,9.10
2023-03-29T21:33:01.978Z,7.20
2023-03-29T21:35:14.093Z,5.60
2023-03-29T21:37:24.044Z,5.20
2023-03-29T21:39:34.021Z,7.90
2023-03-29T21:41:43.851Z,2.90
2023-03-29T21:43:54.433Z,2.40
2023-03-29T21:46:04.336Z,6.00
2023-03-29T21:48:14.211Z,6.90
2023-03-29T21:50:24.301Z,5.40
2023-03-29T21:52:34.035Z,4.50
2023-03-29T21:54:43.714Z,5.40
2023-03-29T21:56:53.911Z,2.30
2023-03-29T21:59:04.114Z,6.50
2023-03-29T22:01:14.196Z,1.60
2023-03-29T22:03:24.367Z,2.80
2023-03-29T22:05:35.030Z,4.20
2023-03-29T22:07:45.070Z,3.00
2023-03-29T22:09:55.209Z,4.20
2023-03-29T22:12:05.399Z,6.00
2023-03-29T22:14:15.966Z,2.90
2023-03-29T22:16:28.631Z,2.40
2023-03-29T22:18:47.435Z,3.90
2023-03-29T22:20:57.290Z,4.10
2023-03-29T22:23:07.687Z,6.10
2023-03-29T22:25:18.246Z,1.70
2023-03-29T22:27:27.891Z,1.60
2023-03-29T22:29:37.769Z,1.80
2023-03-29T22:31:47.677Z,1.70
2023-03-29T22:33:59.114Z,5.80
2023-03-29T22:36:16.901Z,1.40
2023-03-29T22:38:26.679Z,19.00
2023-03-29T22:40:36.649Z,17.60
2023-03-29T22:42:47.198Z,16.00
2023-03-29T22:44:57.951Z,15.50
2023-03-29T22:47:07.984Z,22.70
2023-03-29T22:49:17.875Z,16.80
2023-03-29T22:51:27.946Z,23.60
2023-03-29T22:53:38.052Z,10.80
2023-03-29T22:55:47.819Z,15.30
2023-03-29T22:57:57.936Z,12.50
2023-03-29T23:00:09.531Z,10.40
2023-03-29T23:02:19.779Z,9.90
2023-03-29T23:04:29.880Z,20.70
2023-03-29T23:06:39.862Z,21.60
2023-03-29T23:08:49.710Z,11.00
2023-03-29T23:11:00.039Z,19.80
2023-03-29T23:13:10.121Z,25.80
2023-03-29T23:15:23.333Z,24.20
2023-03-29T23:17:33.184Z,17.20
2023-03-29T23:19:43.050Z,16.50
2023-03-29T23:21:53.512Z,15.80
2023-03-29T23:24:03.644Z,16.50
2023-03-29T23:26:15.008Z,13.00
2023-03-29T23:28:27.676Z,19.70
2023-03-29T23:30:39.425Z,12.00
2023-03-29T23:32:49.295Z,12.40
2023-03-29T23:35:00.502Z,7.90
2023-03-29T23:38:23.375Z,13.10
2023-03-29T23:40:24.100Z,14.10
2023-03-29T23:42:44.031Z,11.00
2023-03-29T23:44:53.959Z,17.10
2023-03-29T23:47:04.203Z,13.50
2023-03-29T23:49:14.330Z,10.90
2023-03-29T23:51:28.649Z,9.10
2023-03-29T23:53:38.267Z,4.80
2023-03-29T23:55:49.162Z,10.50
2023-03-29T23:57:58.800Z,18.60
